createdAt,value
2022-09-02T00:02:10.852Z,16.70
2022-09-02T00:04:37.933Z,16.70
2022-09-02T00:07:04.856Z,16.70
2022-09-02T00:09:31.698Z,16.70
2022-09-02T00:11:58.485Z,16.60
2022-09-02T00:14:30.345Z,16.60
2022-09-02T00:16:57.232Z,16.60
2022-09-02T00:19:25.083Z,16.60
2022-09-02T00:21:52.749Z,16.50
2022-09-02T00:24:19.621Z,16.50
2022-09-02T00:26:46.883Z,16.50
2022-09-02T00:29:15.444Z,16.50
2022-09-02T00:31:43.401Z,16.50
2022-09-02T00:34:10.358Z,16.40
2022-09-02T00:36:37.912Z,16.40
2022-09-02T00:39:05.568Z,16.40
2022-09-02T00:41:32.576Z,16.30
2022-09-02T00:44:01.603Z,16.30
2022-09-02T00:46:30.511Z,16.20
2022-09-02T00:48:57.366Z,16.20
2022-09-02T00:51:24.780Z,16.20
2022-09-02T00:53:51.616Z,16.10
2022-09-02T00:56:26.646Z,16.10
2022-09-02T00:58:54.261Z,16.10
2022-09-02T01:01:22.804Z,16.00
2022-09-02T01:03:50.592Z,16.00
2022-09-02T01:06:20.144Z,16.00
2022-09-02T01:08:54.276Z,16.00
2022-09-02T01:11:21.456Z,16.00
2022-09-02T01:13:48.215Z,15.90
2022-09-02T01:16:24.796Z,15.90
2022-09-02T01:18:53.830Z,15.90
2022-09-02T01:21:21.126Z,15.80
2022-09-02T01:23:48.040Z,15.80
2022-09-02T01:26:15.255Z,15.90
2022-09-02T01:28:42.037Z,15.80
2022-09-02T01:31:09.674Z,15.80
2022-09-02T01:33:36.481Z,15.80
2022-09-02T01:40:58.875Z,15.70
2022-09-02T01:43:26.781Z,15.70
2022-09-02T01:45:54.739Z,15.70
2022-09-02T01:48:23.910Z,15.70
2022-09-02T01:50:53.722Z,15.60
2022-09-02T01:53:20.574Z,15.60
2022-09-02T01:55:47.381Z,15.60
2022-09-02T01:58:14.140Z,15.50
2022-09-02T02:00:41.056Z,15.50
2022-09-02T02:03:07.873Z,15.50
2022-09-02T02:05:35.266Z,15.50
2022-09-02T02:08:04.696Z,15.50
2022-09-02T02:10:31.477Z,15.50
2022-09-02T02:13:00.270Z,15.50
2022-09-02T02:17:57.078Z,15.50
2022-09-02T02:20:24.002Z,15.50
2022-09-02T02:22:51.214Z,15.50
2022-09-02T02:25:18.888Z,15.50
2022-09-02T02:27:51.356Z,15.40
2022-09-02T02:30:21.167Z,15.40
2022-09-02T02:32:48.346Z,15.40
2022-09-02T02:35:19.112Z,15.40
2022-09-02T02:37:49.181Z,15.40
2022-09-02T02:40:17.023Z,15.40
2022-09-02T02:42:43.888Z,15.40
2022-09-02T02:45:15.101Z,15.40
2022-09-02T02:47:43.385Z,15.30
2022-09-02T02:50:11.544Z,15.20
2022-09-02T02:52:39.334Z,15.30
2022-09-02T02:55:06.628Z,15.20
2022-09-02T02:57:35.048Z,15.20
2022-09-02T03:00:23.693Z,15.20
2022-09-02T03:02:50.755Z,15.20
2022-09-02T03:05:20.636Z,15.20
2022-09-02T03:07:47.953Z,15.20
2022-09-02T03:10:16.626Z,15.20
2022-09-02T03:12:47.712Z,15.20
2022-09-02T03:15:17.870Z,15.30
2022-09-02T03:17:46.322Z,15.20
2022-09-02T03:20:15.858Z,15.20
2022-09-02T03:22:47.850Z,15.20
2022-09-02T03:25:15.672Z,15.20
2022-09-02T03:27:46.126Z,15.20
2022-09-02T03:30:15.861Z,15.20
2022-09-02T03:32:43.016Z,15.20
2022-09-02T03:35:12.267Z,15.10
2022-09-02T03:37:39.387Z,15.10
2022-09-02T03:40:07.736Z,15.10
2022-09-02T03:42:34.694Z,15.10
2022-09-02T03:45:01.567Z,15.00
2022-09-02T03:47:30.111Z,15.00
2022-09-02T03:49:58.045Z,15.00
2022-09-02T03:52:25.238Z,15.00
2022-09-02T03:54:52.944Z,15.00
2022-09-02T03:57:23.222Z,15.00
2022-09-02T03:59:50.221Z,15.00
2022-09-02T04:02:17.045Z,15.00
2022-09-02T04:04:44.259Z,14.90
2022-09-02T04:07:11.037Z,15.00
2022-09-02T04:09:37.851Z,15.00
2022-09-02T04:12:05.343Z,15.00
2022-09-02T04:14:32.905Z,14.90
2022-09-02T04:16:59.893Z,14.90
2022-09-02T04:19:26.746Z,14.90
2022-09-02T04:21:53.529Z,14.80
2022-09-02T04:24:20.335Z,14.80
2022-09-02T04:26:49.726Z,14.80
2022-09-02T04:29:18.967Z,14.80
2022-09-02T04:31:48.038Z,14.70
2022-09-02T04:34:14.817Z,14.70
2022-09-02T04:36:42.617Z,14.70
2022-09-02T04:39:10.979Z,14.60
2022-09-02T04:41:38.493Z,14.60
2022-09-02T04:44:08.811Z,14.50
2022-09-02T04:46:39.403Z,14.50
2022-09-02T04:49:09.894Z,14.50
2022-09-02T04:51:38.544Z,14.50
2022-09-02T04:54:08.057Z,14.50
2022-09-02T04:56:38.388Z,14.50
2022-09-02T04:59:05.895Z,14.50
2022-09-02T05:01:34.336Z,14.50
2022-09-02T05:04:09.613Z,14.40
2022-09-02T05:06:44.162Z,14.40
2022-09-02T05:09:15.570Z,14.40
2022-09-02T05:11:42.766Z,14.40
2022-09-02T05:14:09.976Z,14.40
2022-09-02T05:16:40.157Z,14.40
2022-09-02T05:19:13.752Z,14.40
2022-09-02T05:21:47.117Z,14.40
2022-09-02T05:24:26.458Z,14.40
2022-09-02T05:26:55.352Z,14.40
2022-09-02T05:29:23.873Z,14.40
2022-09-02T05:31:51.494Z,14.50
2022-09-02T05:34:22.423Z,14.50
2022-09-02T05:36:51.628Z,14.50
2022-09-02T05:39:18.505Z,14.50
2022-09-02T05:41:47.084Z,14.60
2022-09-02T05:44:14.543Z,14.70
2022-09-02T05:46:44.472Z,14.80
2022-09-02T05:49:17.872Z,14.90
2022-09-02T05:51:58.184Z,15.00
2022-09-02T05:54:39.034Z,15.50
2022-09-02T05:57:11.200Z,16.10
2022-09-02T05:59:42.379Z,16.60
2022-09-02T06:02:12.836Z,17.00
2022-09-02T06:04:41.193Z,17.30
2022-09-02T06:07:09.925Z,17.40
2022-09-02T06:09:41.214Z,17.40
2022-09-02T06:12:08.777Z,17.20
2022-09-02T06:14:38.045Z,17.00
2022-09-02T06:17:05.844Z,16.80
2022-09-02T06:19:46.057Z,16.60
2022-09-02T06:22:13.295Z,16.50
2022-09-02T06:24:42.165Z,16.40
2022-09-02T06:27:14.067Z,16.20
2022-09-02T06:29:46.094Z,16.20
2022-09-02T06:32:17.814Z,16.20
2022-09-02T06:34:44.859Z,16.20
2022-09-02T06:37:11.858Z,16.20
2022-09-02T06:39:43.953Z,16.20
2022-09-02T06:42:16.292Z,16.30
2022-09-02T06:44:59.422Z,16.70
2022-09-02T06:47:26.391Z,17.40
2022-09-02T06:49:53.246Z,18.10
2022-09-02T06:52:21.489Z,19.00
2022-09-02T06:54:50.080Z,19.80
2022-09-02T06:57:17.220Z,20.60
2022-09-02T06:59:44.210Z,21.20
2022-09-02T07:02:12.387Z,21.20
2022-09-02T07:04:59.497Z,21.00
2022-09-02T07:07:26.529Z,20.70
2022-09-02T07:10:00.647Z,20.30
2022-09-02T07:12:27.902Z,20.00
2022-09-02T07:14:59.764Z,19.60
2022-09-02T07:17:34.022Z,19.40
2022-09-02T07:20:05.685Z,19.10
2022-09-02T07:22:39.266Z,19.00
2022-09-02T07:25:08.479Z,18.90
2022-09-02T07:27:36.395Z,18.70
2022-09-02T07:30:05.091Z,18.50
2022-09-02T07:32:32.174Z,18.50
2022-09-02T07:34:58.902Z,18.40
2022-09-02T07:37:26.166Z,18.40
2022-09-02T07:39:54.693Z,18.50
2022-09-02T07:42:22.478Z,18.60
2022-09-02T07:44:49.402Z,18.70
2022-09-02T07:47:17.307Z,18.90
2022-09-02T07:52:33.481Z,19.70
2022-09-02T07:55:00.817Z,20.90
2022-09-02T07:57:28.768Z,21.90
2022-09-02T07:59:55.645Z,22.80
2022-09-02T08:02:22.913Z,23.70
2022-09-02T08:04:50.052Z,24.40
2022-09-02T08:07:19.084Z,25.00
2022-09-02T08:09:45.825Z,25.60
2022-09-02T08:12:12.578Z,26.20
2022-09-02T08:14:39.534Z,26.60
2022-09-02T08:17:07.001Z,26.70
2022-09-02T08:19:33.906Z,26.70
2022-09-02T08:22:06.722Z,26.70
2022-09-02T08:24:33.501Z,26.90
2022-09-02T08:29:30.006Z,27.70
2022-09-02T08:31:56.805Z,27.90
2022-09-02T08:34:23.681Z,28.00
2022-09-02T08:36:56.073Z,28.30
2022-09-02T08:42:13.294Z,28.80
2022-09-02T08:44:41.172Z,28.70
2022-09-02T08:47:12.468Z,28.50
2022-09-02T08:49:42.036Z,28.70
2022-09-02T08:52:08.822Z,28.90
2022-09-02T08:54:44.925Z,29.10
2022-09-02T08:57:12.126Z,29.40
2022-09-02T09:02:35.613Z,29.50
2022-09-02T09:05:02.393Z,29.20
2022-09-02T09:10:21.085Z,29.40
2022-09-02T09:13:06.498Z,29.50
2022-09-02T09:15:56.086Z,28.80
2022-09-02T09:18:34.958Z,28.70
2022-09-02T09:21:01.974Z,29.00
2022-09-02T09:23:34.225Z,29.40
2022-09-02T09:26:24.355Z,29.70
2022-09-02T09:28:51.964Z,30.00
2022-09-02T09:31:20.684Z,29.40
2022-09-02T09:33:59.618Z,28.80
2022-09-02T09:36:43.589Z,28.70
2022-09-02T09:39:19.536Z,28.80
2022-09-02T09:41:47.190Z,28.90
2022-09-02T09:44:34.862Z,29.00
2022-09-02T09:47:02.760Z,29.00
2022-09-02T09:49:30.213Z,29.10
2022-09-02T09:51:57.129Z,29.20
2022-09-02T09:54:25.499Z,29.30
2022-09-02T09:56:52.809Z,29.50
2022-09-02T09:59:41.525Z,29.00
2022-09-02T10:02:22.323Z,28.10
2022-09-02T10:04:49.459Z,27.40
2022-09-02T10:07:34.476Z,26.80
2022-09-02T10:10:19.188Z,26.50
2022-09-02T10:12:47.073Z,26.30
2022-09-02T10:15:14.110Z,26.00
2022-09-02T10:17:40.862Z,25.90
2022-09-02T10:20:13.809Z,25.90
2022-09-02T10:22:59.643Z,26.20
2022-09-02T10:25:35.555Z,26.60
2022-09-02T10:28:09.708Z,26.60
2022-09-02T10:30:42.699Z,26.20
2022-09-02T10:33:12.542Z,26.00
2022-09-02T10:35:53.511Z,25.90
2022-09-02T10:38:55.504Z,25.70
2022-09-02T10:44:35.205Z,25.00
2022-09-02T10:47:04.331Z,25.30
2022-09-02T10:49:34.280Z,25.30
2022-09-02T10:52:01.681Z,25.10
2022-09-02T10:54:28.506Z,24.90
2022-09-02T10:57:04.346Z,24.60
2022-09-02T10:59:55.331Z,24.50
2022-09-02T11:02:26.528Z,24.10
2022-09-02T11:04:59.264Z,24.00
2022-09-02T11:07:41.207Z,24.00
2022-09-02T11:10:19.898Z,24.00
2022-09-02T11:13:05.499Z,23.90
2022-09-02T11:15:47.531Z,23.80
2022-09-02T11:18:21.837Z,23.70
2022-09-02T11:21:14.986Z,23.60
2022-09-02T11:23:50.088Z,23.70
2022-09-02T11:26:43.229Z,23.70
2022-09-02T11:29:14.045Z,23.60
2022-09-02T11:31:50.502Z,23.70
2022-09-02T11:34:20.296Z,23.70
2022-09-02T11:36:48.636Z,23.50
2022-09-02T11:39:21.963Z,23.50
2022-09-02T11:41:57.620Z,23.40
2022-09-02T11:44:31.500Z,23.40
2022-09-02T11:47:07.335Z,23.50
2022-09-02T11:49:40.218Z,23.70
2022-09-02T11:52:06.955Z,23.90
2022-09-02T11:54:44.603Z,24.10
2022-09-02T11:57:20.131Z,24.20
2022-09-02T11:59:53.271Z,24.40
2022-09-02T12:02:46.993Z,24.40
2022-09-02T12:05:30.148Z,24.70
2022-09-02T12:07:59.213Z,24.60
2022-09-02T12:10:48.383Z,24.50
2022-09-02T12:13:33.956Z,24.40
2022-09-02T12:16:23.933Z,24.10
2022-09-02T12:18:54.158Z,24.20
2022-09-02T12:21:28.014Z,24.20
2022-09-02T12:23:57.781Z,24.10
2022-09-02T12:26:26.003Z,24.10
2022-09-02T12:28:53.323Z,24.30
2022-09-02T12:31:22.497Z,24.50
2022-09-02T12:33:50.052Z,24.70
2022-09-02T12:36:45.366Z,24.80
2022-09-02T12:39:24.336Z,25.00
2022-09-02T12:42:03.415Z,25.00
2022-09-02T12:44:30.194Z,25.00
2022-09-02T12:47:08.601Z,25.10
2022-09-02T12:49:35.461Z,25.20
2022-09-02T12:52:02.669Z,25.20
2022-09-02T12:54:38.577Z,25.00
2022-09-02T12:57:06.625Z,24.90
2022-09-02T12:59:34.717Z,24.80
2022-09-02T13:02:01.719Z,25.00
2022-09-02T13:04:47.402Z,25.00
2022-09-02T13:07:32.847Z,25.00
2022-09-02T13:10:02.419Z,24.90
2022-09-02T13:12:56.485Z,25.00
2022-09-02T13:15:29.349Z,25.00
2022-09-02T13:18:14.939Z,24.60
2022-09-02T13:21:04.479Z,24.50
2022-09-02T13:23:40.459Z,24.30
2022-09-02T13:26:47.896Z,24.20
2022-09-02T13:29:16.178Z,24.10
2022-09-02T13:31:43.055Z,24.10
2022-09-02T13:34:13.789Z,24.10
2022-09-02T13:36:45.223Z,24.10
2022-09-02T13:39:25.122Z,24.20
2022-09-02T13:41:52.608Z,24.40
2022-09-02T13:44:26.898Z,24.50
2022-09-02T13:47:04.068Z,24.50
2022-09-02T13:49:37.613Z,24.50
2022-09-02T13:52:06.533Z,24.40
2022-09-02T13:54:34.859Z,24.30
2022-09-02T13:57:05.021Z,24.20
2022-09-02T13:59:33.399Z,24.20
2022-09-02T14:02:00.571Z,24.20
2022-09-02T14:04:27.736Z,24.40
2022-09-02T14:06:54.751Z,24.40
2022-09-02T14:09:25.932Z,24.50
2022-09-02T14:11:53.913Z,24.40
2022-09-02T14:14:23.429Z,24.30
2022-09-02T14:16:50.244Z,24.20
2022-09-02T14:19:17.020Z,24.20
2022-09-02T14:21:51.235Z,24.30
2022-09-02T14:24:22.512Z,24.30
2022-09-02T14:26:51.333Z,24.50
2022-09-02T14:29:19.110Z,24.60
2022-09-02T14:31:46.571Z,24.70
2022-09-02T14:34:36.203Z,24.70
2022-09-02T14:37:20.679Z,24.70
2022-09-02T14:39:54.098Z,24.80
2022-09-02T14:42:20.940Z,25.00
2022-09-02T14:44:47.699Z,25.10
2022-09-02T14:47:15.703Z,25.00
2022-09-02T14:49:52.004Z,25.00
2022-09-02T14:52:21.935Z,25.10
2022-09-02T14:54:49.921Z,25.20
2022-09-02T14:57:32.555Z,25.40
2022-09-02T15:00:00.655Z,25.40
2022-09-02T15:02:27.377Z,25.50
2022-09-02T15:04:54.521Z,25.50
2022-09-02T15:07:21.844Z,25.40
2022-09-02T15:09:51.426Z,25.20
2022-09-02T15:12:24.967Z,25.00
2022-09-02T15:14:52.108Z,24.90
2022-09-02T15:17:19.568Z,24.80
2022-09-02T15:19:46.519Z,24.70
2022-09-02T15:22:14.056Z,24.70
2022-09-02T15:24:41.254Z,24.70
2022-09-02T15:27:08.002Z,24.60
2022-09-02T15:29:34.791Z,24.50
2022-09-02T15:32:03.051Z,24.50
2022-09-02T15:34:30.368Z,24.50
2022-09-02T15:36:57.517Z,24.50
2022-09-02T15:39:26.018Z,24.50
2022-09-02T15:41:56.490Z,24.50
2022-09-02T15:44:26.850Z,24.50
2022-09-02T15:46:54.118Z,24.50
2022-09-02T15:49:21.461Z,24.50
2022-09-02T15:51:49.882Z,24.50
2022-09-02T15:54:17.921Z,24.50
2022-09-02T15:56:45.592Z,24.40
2022-09-02T15:59:14.256Z,24.30
2022-09-02T16:01:42.858Z,24.30
2022-09-02T16:04:10.422Z,24.20
2022-09-02T16:06:39.508Z,24.10
2022-09-02T16:09:06.750Z,24.00
2022-09-02T16:11:33.819Z,23.90
2022-09-02T16:14:00.575Z,23.90
2022-09-02T16:16:27.658Z,23.90
2022-09-02T16:18:54.533Z,23.80
2022-09-02T16:21:22.274Z,23.70
2022-09-02T16:23:50.429Z,23.60
2022-09-02T16:26:46.548Z,23.70
2022-09-02T16:29:14.189Z,23.70
2022-09-02T16:31:41.849Z,23.60
2022-09-02T16:34:10.067Z,23.60
2022-09-02T16:36:38.535Z,23.60
2022-09-02T16:39:05.798Z,23.60
2022-09-02T16:41:36.458Z,23.60
2022-09-02T16:44:05.642Z,23.60
2022-09-02T16:46:32.538Z,23.60
2022-09-02T16:48:59.431Z,23.60
2022-09-02T16:51:27.499Z,23.50
2022-09-02T16:53:58.013Z,23.50
2022-09-02T16:56:26.173Z,23.50
2022-09-02T16:58:53.325Z,23.50
2022-09-02T17:01:20.913Z,23.40
2022-09-02T17:03:47.991Z,23.40
2022-09-02T17:06:14.998Z,23.40
2022-09-02T17:08:43.133Z,23.30
2022-09-02T17:11:15.994Z,23.30
2022-09-02T17:13:42.712Z,23.30
2022-09-02T17:16:09.542Z,23.30
2022-09-02T17:18:36.343Z,23.30
2022-09-02T17:21:15.269Z,23.30
2022-09-02T17:23:42.129Z,23.20
2022-09-02T17:26:09.433Z,23.10
2022-09-02T17:28:38.206Z,23.10
2022-09-02T17:31:13.521Z,23.00
2022-09-02T17:33:40.291Z,23.00
2022-09-02T17:36:07.041Z,22.80
2022-09-02T17:38:33.712Z,22.80
2022-09-02T17:41:18.947Z,22.70
2022-09-02T17:43:45.706Z,22.70
2022-09-02T17:46:12.766Z,22.60
2022-09-02T17:48:59.348Z,22.50
2022-09-02T17:51:26.972Z,22.50
2022-09-02T17:53:54.947Z,22.50
2022-09-02T17:56:42.489Z,22.50
2022-09-02T17:59:18.568Z,22.40
2022-09-02T18:02:09.098Z,22.30
2022-09-02T18:04:39.474Z,22.30
2022-09-02T18:07:18.216Z,22.20
2022-09-02T18:09:45.044Z,22.20
2022-09-02T18:12:11.837Z,22.10
2022-09-02T18:14:42.741Z,22.00
2022-09-02T18:17:15.770Z,22.00
2022-09-02T18:20:06.008Z,22.00
2022-09-02T18:22:51.579Z,21.90
2022-09-02T18:25:24.144Z,21.90
2022-09-02T18:28:00.071Z,21.80
2022-09-02T18:30:45.482Z,21.80
2022-09-02T18:33:17.055Z,21.70
2022-09-02T18:35:49.565Z,21.70
2022-09-02T18:38:16.202Z,21.60
2022-09-02T18:40:49.166Z,21.50
2022-09-02T18:43:42.714Z,21.50
2022-09-02T18:46:11.977Z,21.40
2022-09-02T18:48:39.366Z,21.40
2022-09-02T18:51:10.098Z,21.30
2022-09-02T18:53:49.250Z,21.30
2022-09-02T18:56:17.974Z,21.20
2022-09-02T18:58:53.359Z,21.20
2022-09-02T19:01:29.840Z,21.10
2022-09-02T19:04:00.057Z,21.10
2022-09-02T19:06:30.861Z,21.10
2022-09-02T19:08:59.303Z,21.00
2022-09-02T19:11:27.279Z,21.00
2022-09-02T19:14:00.863Z,20.90
2022-09-02T19:16:28.853Z,20.90
2022-09-02T19:18:55.649Z,20.80
2022-09-02T19:21:33.530Z,20.80
2022-09-02T19:24:01.984Z,20.70
2022-09-02T19:26:28.715Z,20.70
2022-09-02T19:28:57.098Z,20.70
2022-09-02T19:31:27.050Z,20.60
2022-09-02T19:33:56.599Z,20.60
2022-09-02T19:36:26.358Z,20.60
2022-09-02T19:39:00.854Z,20.50
2022-09-02T19:41:28.129Z,20.50
2022-09-02T19:43:55.167Z,20.50
2022-09-02T19:46:59.691Z,20.40
2022-09-02T19:49:09.630Z,20.40
2022-09-02T19:51:36.440Z,20.40
2022-09-02T19:54:03.328Z,20.30
2022-09-02T19:56:30.171Z,20.20
2022-09-02T19:58:57.092Z,20.30
2022-09-02T20:01:24.011Z,20.20
2022-09-02T20:03:50.828Z,20.20
2022-09-02T20:06:17.691Z,20.20
2022-09-02T20:08:44.462Z,20.10
2022-09-02T20:11:11.215Z,20.00
2022-09-02T20:13:41.333Z,20.00
2022-09-02T20:16:16.566Z,20.00
2022-09-02T20:18:46.767Z,20.00
2022-09-02T20:21:18.618Z,19.90
2022-09-02T20:23:45.426Z,19.80
2022-09-02T20:26:18.450Z,19.80
2022-09-02T20:28:56.250Z,19.70
2022-09-02T20:31:23.053Z,19.70
2022-09-02T20:34:03.663Z,19.60
2022-09-02T20:36:41.809Z,19.60
2022-09-02T20:39:14.664Z,19.50
2022-09-02T20:41:55.222Z,19.50
2022-09-02T20:44:34.783Z,19.40
2022-09-02T20:47:24.949Z,19.40
2022-09-02T20:49:56.594Z,19.40
2022-09-02T20:52:40.423Z,19.30
2022-09-02T20:55:07.148Z,19.20
2022-09-02T20:57:38.175Z,19.20
2022-09-02T21:00:12.462Z,19.20
2022-09-02T21:02:42.168Z,19.10
2022-09-02T21:05:13.406Z,19.00
2022-09-02T21:07:55.546Z,19.00
2022-09-02T21:10:29.663Z,19.00
2022-09-02T21:13:13.503Z,19.00
2022-09-02T21:15:53.035Z,18.90
2022-09-02T21:18:40.850Z,18.80
2022-09-02T21:21:31.628Z,18.70
2022-09-02T21:24:24.415Z,18.70
2022-09-02T21:27:16.571Z,18.60
2022-09-02T21:29:52.758Z,18.60
2022-09-02T21:32:42.223Z,18.60
2022-09-02T21:35:10.854Z,18.60
2022-09-02T21:37:40.081Z,18.50
2022-09-02T21:40:15.759Z,18.50
2022-09-02T21:43:03.457Z,18.50
2022-09-02T21:45:59.157Z,18.50
2022-09-02T21:48:33.800Z,18.50
2022-09-02T21:51:04.910Z,18.40
2022-09-02T21:54:00.698Z,18.40
2022-09-02T21:56:32.324Z,18.40
2022-09-02T21:58:59.063Z,18.30
2022-09-02T22:01:42.206Z,18.30
2022-09-02T22:04:15.861Z,18.30
2022-09-02T22:06:44.413Z,18.20
2022-09-02T22:09:15.606Z,18.20
2022-09-02T22:11:45.419Z,18.20
2022-09-02T22:14:15.860Z,18.10
2022-09-02T22:16:45.766Z,18.10
2022-09-02T22:19:13.590Z,18.10
2022-09-02T22:21:48.382Z,18.10
2022-09-02T22:24:16.236Z,18.10
2022-09-02T22:26:42.976Z,18.00
2022-09-02T22:29:25.035Z,18.00
2022-09-02T22:31:54.111Z,18.00
2022-09-02T22:34:23.813Z,18.00
2022-09-02T22:37:05.054Z,18.00
2022-09-02T22:39:39.018Z,17.90
2022-09-02T22:42:36.790Z,17.90
2022-09-02T22:45:53.447Z,17.90
2022-09-02T22:48:57.618Z,17.90
2022-09-02T22:51:54.432Z,17.80
2022-09-02T22:54:21.868Z,17.80
2022-09-02T22:57:14.076Z,17.70
2022-09-02T23:00:09.627Z,17.70
2022-09-02T23:02:39.226Z,17.60
2022-09-02T23:08:03.590Z,17.60
2022-09-02T23:10:30.470Z,17.50
2022-09-02T23:13:14.068Z,17.50
2022-09-02T23:15:44.415Z,17.50
2022-09-02T23:18:47.049Z,17.50
2022-09-02T23:21:26.338Z,17.40
2022-09-02T23:24:05.974Z,17.40
2022-09-02T23:26:50.637Z,17.40
2022-09-02T23:29:26.218Z,17.30
2022-09-02T23:32:08.205Z,17.30
2022-09-02T23:35:07.603Z,17.30
2022-09-02T23:38:00.501Z,17.20
2022-09-02T23:40:41.634Z,17.20
2022-09-02T23:43:10.012Z,17.10
2022-09-02T23:45:36.977Z,17.20
2022-09-02T23:48:09.509Z,17.20
2022-09-02T23:50:45.710Z,17.00
2022-09-02T23:53:16.032Z,17.10
2022-09-02T23:55:51.162Z,17.00
2022-09-02T23:58:30.279Z,17.00
